createdAt,value
2022-08-26T16:04:09.752Z,57.38
2022-08-26T16:07:43.368Z,59.81
2022-08-26T16:11:23.089Z,60.66
2022-08-26T16:15:01.304Z,61.24
2022-08-26T16:18:40.200Z,61.33
2022-08-26T16:22:17.781Z,61.55
2022-08-26T16:25:55.425Z,61.88
2022-08-26T16:29:33.441Z,61.92
2022-08-26T16:33:14.410Z,61.98
2022-08-26T16:37:06.637Z,61.64
2022-08-26T16:40:44.283Z,62.15
2022-08-26T16:44:22.074Z,62.06
2022-08-26T16:47:59.833Z,61.69
2022-08-26T16:51:38.517Z,62.35
2022-08-26T16:55:16.162Z,62.34
2022-08-26T16:58:53.668Z,60.90
2022-08-26T17:02:32.582Z,60.29
2022-08-26T17:06:11.579Z,60.45
2022-08-26T17:09:49.265Z,60.54
2022-08-26T17:13:35.746Z,60.39
2022-08-26T17:17:14.181Z,60.86
2022-08-26T17:20:52.738Z,61.16
2022-08-26T17:24:33.998Z,61.40
2022-08-26T17:28:13.561Z,61.92
2022-08-26T17:31:51.728Z,62.05
2022-08-26T17:35:28.674Z,62.17
2022-08-26T17:39:05.680Z,62.29
2022-08-26T17:42:43.917Z,62.24
2022-08-26T17:46:21.463Z,62.59
2022-08-26T17:50:00.617Z,62.81
2022-08-26T17:53:39.498Z,62.80
2022-08-26T17:57:16.480Z,62.81
2022-08-26T18:00:56.695Z,63.06
2022-08-26T18:04:34.460Z,63.52
2022-08-26T18:08:12.254Z,63.70
2022-08-26T18:11:51.935Z,64.18
2022-08-26T18:15:29.695Z,64.84
2022-08-26T18:19:07.400Z,65.22
2022-08-26T18:22:47.317Z,65.45
2022-08-26T18:26:37.087Z,66.62
2022-08-26T18:30:18.931Z,67.74
2022-08-26T18:33:58.875Z,68.34
2022-08-26T18:37:36.477Z,68.33
2022-08-26T18:41:14.801Z,68.32
2022-08-26T18:44:51.678Z,68.36
2022-08-26T18:48:29.893Z,68.80
2022-08-26T18:52:07.131Z,69.44
2022-08-26T18:55:45.636Z,69.35
2022-08-26T18:59:28.804Z,68.23
2022-08-26T19:03:08.292Z,65.44
2022-08-26T19:06:57.094Z,58.75
2022-08-26T19:10:39.764Z,56.23
2022-08-26T19:14:18.267Z,55.08
2022-08-26T19:17:55.802Z,54.30
2022-08-26T19:21:35.487Z,53.82
2022-08-26T19:25:12.881Z,52.91
2022-08-26T19:28:51.404Z,52.83
2022-08-26T19:32:30.654Z,52.20
2022-08-26T19:36:14.784Z,52.30
2022-08-26T19:39:52.756Z,51.57
2022-08-26T19:43:30.608Z,51.05
2022-08-26T19:47:11.089Z,50.72
2022-08-26T19:50:48.934Z,50.84
2022-08-26T19:54:26.748Z,50.85
2022-08-26T19:58:03.783Z,50.85
2022-08-26T20:01:41.170Z,50.81
2022-08-26T20:05:21.774Z,50.87
2022-08-26T20:09:00.611Z,50.32
2022-08-26T20:12:37.930Z,50.31
2022-08-26T20:16:17.323Z,49.48
2022-08-26T20:19:55.037Z,49.05
2022-08-26T20:23:32.699Z,48.78
2022-08-26T20:27:11.390Z,48.43
2022-08-26T20:30:48.590Z,47.75
2022-08-26T20:34:27.139Z,47.31
2022-08-26T20:38:04.753Z,47.04
2022-08-26T20:41:44.674Z,46.79
2022-08-26T20:45:22.785Z,46.48
2022-08-26T20:49:00.832Z,46.38
2022-08-26T20:52:38.400Z,45.74
2022-08-26T20:56:18.224Z,45.38
2022-08-26T20:59:55.882Z,44.84
2022-08-26T21:03:33.837Z,44.45
2022-08-26T21:07:11.786Z,43.97
2022-08-26T21:10:49.961Z,44.11
2022-08-26T21:14:30.049Z,43.86
2022-08-26T21:18:07.737Z,43.55
2022-08-26T21:21:47.653Z,43.20
2022-08-26T21:25:25.348Z,43.41
2022-08-26T21:29:05.315Z,44.10
2022-08-26T21:32:43.244Z,44.94
2022-08-26T21:36:20.923Z,45.56
2022-08-26T21:40:00.038Z,45.80
2022-08-26T21:43:39.050Z,46.11
2022-08-26T21:47:17.158Z,46.92
2022-08-26T21:50:54.964Z,48.17
2022-08-26T21:54:32.568Z,48.75
2022-08-26T21:58:10.403Z,48.96
2022-08-26T22:01:48.475Z,50.34
2022-08-26T22:05:27.475Z,49.97
2022-08-26T22:09:06.203Z,49.37
2022-08-26T22:12:43.987Z,49.54
2022-08-26T22:16:21.895Z,49.18
2022-08-26T22:20:00.007Z,48.74
2022-08-26T22:23:38.969Z,48.74
2022-08-26T22:27:16.197Z,48.53
2022-08-26T22:30:53.388Z,48.18
2022-08-26T22:34:30.786Z,48.00
2022-08-26T22:38:09.672Z,48.10
2022-08-26T22:41:48.925Z,48.07
2022-08-26T22:45:27.435Z,48.30
2022-08-26T22:49:04.993Z,48.64
2022-08-26T22:52:42.103Z,48.67
2022-08-26T22:56:21.290Z,49.17
2022-08-26T22:59:58.645Z,49.76
2022-08-26T23:03:37.057Z,50.16
2022-08-26T23:07:14.605Z,50.30
2022-08-26T23:10:52.524Z,50.26
2022-08-26T23:14:32.179Z,50.32
2022-08-26T23:18:10.471Z,50.54
2022-08-26T23:21:49.816Z,50.78
2022-08-26T23:25:28.567Z,51.18
2022-08-26T23:29:07.988Z,51.23
2022-08-26T23:32:45.533Z,51.34
2022-08-26T23:36:23.183Z,51.22
2022-08-26T23:40:09.139Z,51.54
2022-08-26T23:43:46.369Z,51.77
2022-08-26T23:47:25.190Z,51.98
2022-08-26T23:51:03.442Z,52.31
2022-08-26T23:54:41.036Z,52.56
2022-08-26T23:58:20.202Z,52.86
